Time;durP1;ratioP1;P1;durP2;ratioP2;P2;SDS_P1;SDS_P2;PMS_P1;PMS_P2;Temp;Humidity;BMP_temperature;BMP_pressure;BME280_temperature;BME280_humidity;BME280_pressure;Samples;Min_cycle;Max_cycle;Signal;HPM_P1;HPM_P2
2024/02/11 00:01:08;;;;;;;5.97;4.87;;;13.10;99.90;;;;;;5081655;28;20629;-73
2024/02/11 00:03:34;;;;;;;4.93;4.13;;;13.00;99.90;;;;;;5073563;28;20678;-73
2024/02/11 00:06:04;;;;;;;5.73;5.00;;;13.00;99.90;;;;;;5067163;28;21034;-73
2024/02/11 00:08:30;;;;;;;6.00;5.07;;;13.00;99.90;;;;;;5082648;28;20625;-72
2024/02/11 00:10:56;;;;;;;4.83;4.40;;;13.00;99.90;;;;;;5074040;28;20630;-73
2024/02/11 00:13:22;;;;;;;4.57;3.83;;;13.10;99.90;;;;;;5066794;28;21302;-73
2024/02/11 00:15:48;;;;;;;4.93;4.43;;;13.10;99.90;;;;;;5066772;28;20231;-74
2024/02/11 00:18:15;;;;;;;7.00;4.90;;;13.10;99.90;;;;;;5083863;28;20602;-73
2024/02/11 00:20:41;;;;;;;5.80;5.30;;;13.10;99.90;;;;;;5067155;28;20589;-73
2024/02/11 00:23:07;;;;;;;5.83;5.20;;;13.00;99.90;;;;;;5067085;28;20636;-73
2024/02/11 00:25:33;;;;;;;6.13;5.53;;;13.00;99.90;;;;;;5075280;28;20585;-73
2024/02/11 00:27:59;;;;;;;7.40;4.67;;;12.90;99.90;;;;;;5093853;28;21013;-73
2024/02/11 00:30:26;;;;;;;7.15;5.55;;;12.90;99.90;;;;;;5058589;28;20625;-73
2024/02/11 00:32:58;;;;;;;5.87;4.80;;;12.90;99.90;;;;;;5058969;28;20167;-73
2024/02/11 00:35:24;;;;;;;6.77;5.07;;;12.80;99.90;;;;;;5057949;28;20955;-73
2024/02/11 00:37:50;;;;;;;7.23;5.67;;;12.80;99.90;;;;;;5075202;28;20581;-73
2024/02/11 00:40:16;;;;;;;9.30;7.90;;;12.80;99.90;;;;;;5073281;28;20573;-73
2024/02/11 00:42:45;;;;;;;6.60;5.97;;;12.70;99.90;;;;;;5052639;28;20180;-73
2024/02/11 00:45:12;;;;;;;7.00;5.00;;;12.80;99.90;;;;;;5056835;28;20589;-73
2024/02/11 00:47:40;;;;;;;7.00;5.67;;;12.80;99.90;;;;;;5068244;28;20596;-76
2024/02/11 00:50:13;;;;;;;6.17;5.57;;;12.80;99.90;;;;;;5092978;28;20586;-76
2024/02/11 00:52:44;;;;;;;6.13;5.53;;;12.80;99.90;;;;;;5075093;28;20584;-76
2024/02/11 00:55:11;;;;;;;7.07;5.03;;;12.80;99.90;;;;;;5082778;28;20952;-76
2024/02/11 00:57:37;;;;;;;5.60;4.83;;;12.80;99.90;;;;;;5074699;28;20642;-76
2024/02/11 01:00:10;;;;;;;6.47;5.87;;;12.80;99.90;;;;;;5088865;28;20581;-76
2024/02/11 01:02:37;;;;;;;8.27;5.07;;;12.70;99.90;;;;;;5069407;28;20575;-77
2024/02/11 01:05:04;;;;;;;5.57;5.00;;;12.70;99.90;;;;;;5070794;28;21119;-76
2024/02/11 01:07:30;;;;;;;5.80;5.07;;;12.70;99.90;;;;;;5076001;22;20711;-78
2024/02/11 01:09:56;;;;;;;6.53;5.87;;;12.70;99.90;;;;;;5072699;28;21003;-79
2024/02/11 01:12:23;;;;;;;5.67;5.10;;;12.70;99.90;;;;;;5054535;28;20580;-79
2024/02/11 01:14:49;;;;;;;5.20;4.70;;;12.70;99.90;;;;;;5077796;28;21279;-79
2024/02/11 01:17:19;;;;;;;5.17;4.77;;;12.70;99.90;;;;;;5057311;28;20625;-79
2024/02/11 01:19:48;;;;;;;4.83;4.10;;;12.70;99.90;;;;;;5044012;28;20931;-79
2024/02/11 01:22:14;;;;;;;6.43;4.57;;;12.70;99.90;;;;;;5044381;28;20579;-79
2024/02/11 01:24:40;;;;;;;5.33;4.27;;;12.70;99.90;;;;;;5053781;28;20593;-79
2024/02/11 01:27:05;;;;;;;6.30;5.17;;;12.70;99.90;;;;;;5062681;28;20190;-79
2024/02/11 01:29:31;;;;;;;5.77;4.73;;;12.70;99.90;;;;;;5054569;28;20188;-79
2024/02/11 01:31:58;;;;;;;6.77;6.17;;;12.70;99.90;;;;;;5073117;28;20176;-79
2024/02/11 01:34:24;;;;;;;5.80;5.20;;;12.70;99.90;;;;;;5072465;28;20612;-78
2024/02/11 01:36:49;;;;;;;6.70;4.90;;;12.70;99.90;;;;;;5083544;28;20583;-78
2024/02/11 01:39:15;;;;;;;7.23;5.70;;;12.70;99.90;;;;;;5072426;28;20973;-78
2024/02/11 01:41:41;;;;;;;9.63;6.73;;;12.70;99.90;;;;;;5059830;28;20179;-79
2024/02/11 01:44:07;;;;;;;5.77;4.70;;;12.70;99.90;;;;;;5072207;28;20234;-79
2024/02/11 01:46:34;;;;;;;7.30;6.20;;;12.70;99.90;;;;;;5053423;28;20605;-79
2024/02/11 01:49:04;;;;;;;6.00;5.40;;;12.70;99.90;;;;;;5061395;28;20204;-78
2024/02/11 01:51:34;;;;;;;7.43;5.87;;;12.70;99.90;;;;;;5062461;28;20590;-79
2024/02/11 01:54:03;;;;;;;5.87;5.33;;;12.70;99.90;;;;;;5037791;28;20637;-79
2024/02/11 01:56:30;;;;;;;6.13;5.33;;;12.70;99.90;;;;;;5056971;28;20974;-79
2024/02/11 01:58:56;;;;;;;6.00;4.80;;;12.70;99.90;;;;;;5037355;28;21032;-79
2024/02/11 02:01:25;;;;;;;6.00;4.93;;;12.70;99.90;;;;;;5056047;28;20686;-79
2024/02/11 02:03:50;;;;;;;6.90;5.30;;;12.70;99.90;;;;;;5059621;28;20180;-79
2024/02/11 02:06:16;;;;;;;5.53;4.13;;;12.70;99.90;;;;;;5053652;28;20999;-79
2024/02/11 02:08:42;;;;;;;5.70;5.10;;;12.70;99.90;;;;;;5053615;28;20251;-79
2024/02/11 02:11:09;;;;;;;5.30;4.80;;;12.60;99.90;;;;;;5053934;28;20626;-79
2024/02/11 02:13:36;;;;;;;7.30;6.33;;;12.60;99.90;;;;;;5091121;28;20200;-79
2024/02/11 02:16:02;;;;;;;6.07;5.57;;;12.60;99.90;;;;;;5036021;28;20586;-79
2024/02/11 02:18:34;;;;;;;5.30;4.80;;;12.60;99.90;;;;;;5071109;28;20610;-79
2024/02/11 02:21:01;;;;;;;8.30;4.60;;;12.60;99.90;;;;;;5036986;28;20637;-79
2024/02/11 02:23:27;;;;;;;7.90;6.10;;;12.60;99.90;;;;;;5082330;28;21008;-79
2024/02/11 02:25:52;;;;;;;6.07;5.50;;;12.60;99.90;;;;;;5066396;28;20599;-79
2024/02/11 02:28:20;;;;;;;6.10;4.97;;;12.60;99.90;;;;;;5008065;28;20577;-79
2024/02/11 02:30:46;;;;;;;8.73;5.95;;;12.60;99.90;;;;;;5070204;28;20187;-79
2024/02/11 02:33:12;;;;;;;7.88;6.10;;;12.60;99.90;;;;;;5071221;28;20208;-79
2024/02/11 02:35:37;;;;;;;5.43;4.93;;;12.70;99.90;;;;;;5074803;28;20168;-79
2024/02/11 02:38:04;;;;;;;6.00;5.40;;;12.70;99.90;;;;;;5057404;28;20188;-79
2024/02/11 02:40:31;;;;;;;5.80;5.30;;;12.70;99.90;;;;;;5071267;28;20621;-79
2024/02/11 02:43:00;;;;;;;5.75;5.25;;;12.70;99.90;;;;;;5052336;28;20670;-79
2024/02/11 02:45:27;;;;;;;5.97;5.38;;;12.70;99.90;;;;;;5070762;28;20176;-79
2024/02/11 02:47:54;;;;;;;6.10;5.20;;;12.70;99.90;;;;;;5085545;28;20592;-79
2024/02/11 02:50:19;;;;;;;8.23;4.38;;;12.70;99.90;;;;;;5075232;28;20582;-79
2024/02/11 02:52:46;;;;;;;8.20;5.50;;;12.70;99.90;;;;;;5063246;28;20172;-79
2024/02/11 02:55:12;;;;;;;5.85;4.90;;;12.70;99.90;;;;;;5052419;28;20638;-79
2024/02/11 02:57:38;;;;;;;6.97;5.63;;;12.80;99.90;;;;;;5070673;28;20184;-79
2024/02/11 03:00:06;;;;;;;5.63;5.13;;;12.80;99.90;;;;;;5070963;28;20594;-79
2024/02/11 03:02:34;;;;;;;5.10;4.60;;;12.80;99.90;;;;;;5070720;28;20184;-79
2024/02/11 03:05:02;;;;;;;7.93;4.53;;;12.80;99.90;;;;;;5035884;28;20176;-79
2024/02/11 03:07:28;;;;;;;6.10;4.50;;;12.80;99.90;;;;;;5052373;28;20204;-79
2024/02/11 03:09:54;;;;;;;4.80;4.30;;;12.80;99.90;;;;;;5058596;28;20643;-79
2024/02/11 03:12:19;;;;;;;6.03;5.37;;;12.80;99.90;;;;;;5072944;28;20594;-79
2024/02/11 03:14:47;;;;;;;5.87;4.37;;;12.80;99.90;;;;;;5068980;28;20622;-79
2024/02/11 03:17:13;;;;;;;5.73;5.00;;;12.80;99.90;;;;;;5035787;28;20255;-79
2024/02/11 03:19:41;;;;;;;5.30;4.80;;;12.80;99.90;;;;;;5052239;28;20678;-79
2024/02/11 03:22:13;;;;;;;6.03;4.70;;;12.80;99.90;;;;;;5052639;28;20588;-79
2024/02/11 03:24:44;;;;;;;5.57;5.00;;;12.90;99.90;;;;;;5062029;28;20587;-79
2024/02/11 03:27:10;;;;;;;6.40;4.60;;;12.90;99.90;;;;;;5036119;28;21236;-79
2024/02/11 03:29:36;;;;;;;5.97;5.10;;;12.80;99.90;;;;;;5063162;28;20602;-79
2024/02/11 03:32:03;;;;;;;5.53;4.50;;;12.90;99.90;;;;;;5068992;28;20259;-79
2024/02/11 03:34:29;;;;;;;6.37;5.23;;;12.90;99.90;;;;;;5060568;28;20633;-79
2024/02/11 03:36:54;;;;;;;5.00;4.50;;;12.90;99.90;;;;;;5052761;28;20583;-79
2024/02/11 03:39:21;;;;;;;6.00;5.40;;;12.90;99.90;;;;;;5070168;28;20673;-79
2024/02/11 03:41:47;;;;;;;6.23;5.00;;;12.90;99.90;;;;;;5070163;28;20183;-79
2024/02/11 03:44:13;;;;;;;5.87;5.27;;;12.90;99.90;;;;;;5077463;28;20589;-79
2024/02/11 03:46:38;;;;;;;5.30;4.80;;;12.90;99.90;;;;;;5043161;28;20180;-79
2024/02/11 03:49:04;;;;;;;6.33;5.30;;;12.90;99.90;;;;;;5051976;28;20203;-79
2024/02/11 03:51:31;;;;;;;5.90;5.40;;;12.80;99.90;;;;;;5070247;28;20190;-79
2024/02/11 03:54:01;;;;;;;5.30;4.03;;;12.80;99.90;;;;;;5038919;28;20652;-78
2024/02/11 03:56:28;;;;;;;6.90;4.93;;;12.80;99.90;;;;;;5084874;28;20584;-78
2024/02/11 03:58:57;;;;;;;6.10;4.87;;;12.90;99.90;;;;;;5078395;28;20661;-78
2024/02/11 04:01:24;;;;;;;5.40;4.50;;;12.90;99.90;;;;;;5052191;28;20617;-78
2024/02/11 04:03:49;;;;;;;4.93;4.40;;;12.90;99.90;;;;;;5070165;28;20586;-78
2024/02/11 04:06:17;;;;;;;5.43;4.40;;;12.90;99.90;;;;;;5054296;28;20713;-78
2024/02/11 04:08:43;;;;;;;5.77;4.70;;;12.90;99.90;;;;;;5052007;28;20212;-78
2024/02/11 04:11:12;;;;;;;5.03;4.53;;;12.90;99.90;;;;;;5076188;28;20588;-78
2024/02/11 04:13:38;;;;;;;4.30;3.90;;;12.90;99.90;;;;;;5052248;28;20192;-78
2024/02/11 04:16:16;;;;;;;5.47;4.97;;;12.90;99.90;;;;;;5069615;28;21131;-78
2024/02/11 04:18:45;;;;;;;5.38;4.80;;;12.90;99.90;;;;;;5060139;28;20610;-78
2024/02/11 04:21:11;;;;;;;5.50;5.10;;;12.90;99.90;;;;;;5070033;28;20183;-78
2024/02/11 04:23:38;;;;;;;6.00;3.97;;;12.90;99.90;;;;;;5074929;28;21230;-78
2024/02/11 04:26:10;;;;;;;8.50;4.50;;;12.90;99.90;;;;;;5069003;28;20233;-78
2024/02/11 04:28:36;;;;;;;5.30;4.67;;;12.80;99.90;;;;;;5069857;28;20614;-78
2024/02/11 04:31:09;;;;;;;6.53;4.37;;;12.80;99.90;;;;;;5060307;28;20598;-78
2024/02/11 04:33:41;;;;;;;5.88;3.72;;;12.80;99.90;;;;;;5069770;28;20729;-79
2024/02/11 04:36:07;;;;;;;4.33;3.80;;;12.90;99.90;;;;;;5069605;28;20187;-79
2024/02/11 04:38:34;;;;;;;5.40;4.50;;;12.90;99.90;;;;;;5069755;28;20602;-79
2024/02/11 04:41:04;;;;;;;6.03;4.20;;;12.90;99.90;;;;;;5054697;28;20639;-79
2024/02/11 04:43:34;;;;;;;4.47;3.77;;;13.00;99.90;;;;;;5057667;28;20689;-79
2024/02/11 04:46:02;;;;;;;4.13;3.50;;;13.00;99.90;;;;;;5055093;28;20684;-79
2024/02/11 04:48:31;;;;;;;3.80;3.03;;;13.10;99.90;;;;;;5074722;28;20630;-79
2024/02/11 04:51:01;;;;;;;3.80;2.67;;;13.10;99.90;;;;;;5061800;28;20609;-79
2024/02/11 04:53:29;;;;;;;3.50;3.07;;;13.10;99.90;;;;;;5073084;28;20729;-79
2024/02/11 04:55:57;;;;;;;3.27;1.80;;;13.20;99.90;;;;;;5073107;28;20601;-78
2024/02/11 04:58:26;;;;;;;3.10;2.27;;;13.20;99.90;;;;;;5081831;28;20679;-79
2024/02/11 05:00:53;;;;;;;4.13;1.57;;;13.20;99.90;;;;;;5077545;28;20590;-78
2024/02/11 05:03:19;;;;;;;3.07;1.60;;;13.30;99.90;;;;;;5055511;28;20614;-79
2024/02/11 05:05:47;;;;;;;2.13;1.73;;;13.30;99.90;;;;;;5073097;28;20682;-79
2024/02/11 05:08:16;;;;;;;2.00;1.30;;;13.30;99.90;;;;;;5081226;28;20725;-78
2024/02/11 05:10:44;;;;;;;2.97;1.33;;;13.30;99.90;;;;;;5054958;28;20180;-78
2024/02/11 05:13:14;;;;;;;1.50;0.93;;;13.30;99.90;;;;;;5081427;28;20632;-77
2024/02/11 05:15:42;;;;;;;1.57;0.87;;;13.30;99.90;;;;;;5079212;28;20921;-77
2024/02/11 05:18:12;;;;;;;1.30;0.67;;;13.30;99.90;;;;;;5072818;28;20606;-77
2024/02/11 05:20:39;;;;;;;1.93;0.80;;;13.30;99.90;;;;;;5059745;28;20681;-77
2024/02/11 05:23:08;;;;;;;1.40;0.50;;;13.30;99.90;;;;;;5072870;28;20582;-77
2024/02/11 05:25:35;;;;;;;1.20;0.50;;;13.30;99.90;;;;;;5072228;28;20570;-77
2024/02/11 05:28:03;;;;;;;1.00;0.40;;;13.30;99.90;;;;;;5038074;28;20628;-78
2024/02/11 05:30:33;;;;;;;1.10;0.40;;;13.30;99.90;;;;;;5055094;28;20668;-77
2024/02/11 05:33:00;;;;;;;1.10;0.40;;;13.20;99.90;;;;;;5054803;28;20632;-77
2024/02/11 05:35:28;;;;;;;1.92;0.50;;;13.10;99.90;;;;;;5054831;28;20586;-78
2024/02/11 05:37:57;;;;;;;1.60;0.50;;;13.00;99.90;;;;;;5072887;28;20271;-78
2024/02/11 05:40:27;;;;;;;2.97;0.50;;;12.80;99.90;;;;;;5071168;28;20598;-78
2024/02/11 05:42:54;;;;;;;2.10;0.60;;;12.70;99.90;;;;;;5054564;28;20172;-78
2024/02/11 05:45:23;;;;;;;1.80;0.90;;;12.60;99.90;;;;;;5071705;28;20283;-78
2024/02/11 05:47:53;;;;;;;2.17;0.60;;;12.40;99.90;;;;;;5047048;28;20281;-78
2024/02/11 05:50:20;;;;;;;2.17;0.68;;;12.30;99.90;;;;;;5054277;28;20582;-78
2024/02/11 05:52:46;;;;;;;3.75;0.73;;;12.20;99.90;;;;;;5071356;28;20543;-78
2024/02/11 05:55:16;;;;;;;3.22;0.70;;;12.10;99.90;;;;;;5058788;28;20203;-77
2024/02/11 05:57:43;;;;;;;2.35;0.82;;;12.00;99.90;;;;;;5067372;28;20246;-77
2024/02/11 06:00:13;;;;;;;8.98;1.23;;;11.90;99.90;;;;;;5063183;28;20171;-77
2024/02/11 06:02:44;;;;;;;5.72;1.00;;;11.80;99.90;;;;;;5055433;28;20238;-77
2024/02/11 06:05:14;;;;;;;3.17;1.05;;;11.80;99.90;;;;;;5037154;28;20176;-77
2024/02/11 06:07:46;;;;;;;3.47;1.00;;;11.70;99.90;;;;;;5053524;28;20215;-77
2024/02/11 06:10:14;;;;;;;3.33;1.23;;;11.60;99.90;;;;;;5061833;28;20263;-77
2024/02/11 06:12:41;;;;;;;6.30;1.20;;;11.60;99.90;;;;;;5055643;28;20176;-78
2024/02/11 06:15:08;;;;;;;2.42;0.90;;;11.60;99.90;;;;;;5058929;28;20227;-78
2024/02/11 06:17:35;;;;;;;3.65;1.17;;;11.50;99.90;;;;;;5053025;28;20196;-77
2024/02/11 06:20:02;;;;;;;3.90;1.60;;;11.50;99.90;;;;;;5071619;28;20179;-78
2024/02/11 06:22:29;;;;;;;1.65;1.15;;;11.50;99.90;;;;;;5079774;28;20211;-78
2024/02/11 06:24:56;;;;;;;5.97;1.60;;;11.50;99.90;;;;;;5070754;28;20253;-77
2024/02/11 06:27:22;;;;;;;4.53;1.20;;;11.50;99.90;;;;;;5036628;28;20172;-77
2024/02/11 06:33:35;;;;;;;5.25;1.25;;;11.40;99.90;;;;;;5086324;28;20204;-78
2024/02/11 06:36:01;;;;;;;3.43;1.07;;;11.40;99.90;;;;;;5053908;28;20665;-78
2024/02/11 06:38:27;;;;;;;3.70;1.20;;;11.40;99.90;;;;;;5053931;28;20622;-78
2024/02/11 06:40:54;;;;;;;4.47;1.25;;;11.40;99.90;;;;;;5053082;28;20241;-78
2024/02/11 06:43:21;;;;;;;3.38;1.30;;;11.40;99.90;;;;;;5070954;28;20203;-78
2024/02/11 06:45:46;;;;;;;3.88;1.33;;;11.40;99.90;;;;;;5061177;28;20217;-78
2024/02/11 06:48:13;;;;;;;6.23;1.40;;;11.40;99.90;;;;;;5070517;28;20670;-78
2024/02/11 06:50:39;;;;;;;5.70;1.90;;;11.40;99.90;;;;;;5052397;28;20748;-77
2024/02/11 06:53:07;;;;;;;3.83;1.20;;;11.40;99.90;;;;;;5053072;28;20259;-78
2024/02/11 06:55:33;;;;;;;3.55;1.10;;;11.40;99.90;;;;;;5037275;28;20176;-78
2024/02/11 06:57:59;;;;;;;3.72;1.33;;;11.30;99.90;;;;;;5060057;28;20269;-78
2024/02/11 07:00:25;;;;;;;2.63;1.40;;;11.30;99.90;;;;;;5056118;28;20616;-78
2024/02/11 07:03:00;;;;;;;4.72;1.50;;;11.30;99.90;;;;;;5052459;28;20169;-78
2024/02/11 07:05:26;;;;;;;3.13;1.42;;;11.30;99.90;;;;;;5052893;28;20172;-78
2024/02/11 07:07:54;;;;;;;3.47;1.20;;;11.30;99.90;;;;;;5061044;28;20210;-78
2024/02/11 07:10:20;;;;;;;3.75;1.50;;;11.20;99.90;;;;;;5071148;28;20196;-78
2024/02/11 07:12:46;;;;;;;3.90;1.45;;;11.20;99.90;;;;;;5055191;28;20176;-78
2024/02/11 07:15:13;;;;;;;4.68;1.95;;;11.20;99.90;;;;;;5066939;28;20234;-78
2024/02/11 07:17:41;;;;;;;3.28;1.42;;;11.20;99.90;;;;;;5070252;28;20196;-77
2024/02/11 07:20:11;;;;;;;6.03;1.27;;;11.20;99.90;;;;;;5061110;28;20168;-78
2024/02/11 07:22:42;;;;;;;6.05;2.28;;;11.20;99.90;;;;;;5071764;28;20263;-78
2024/02/11 07:25:09;;;;;;;4.50;1.60;;;11.20;99.90;;;;;;5068346;28;20235;-78
2024/02/11 07:27:35;;;;;;;3.80;1.60;;;11.10;99.90;;;;;;5074955;28;20233;-78
2024/02/11 07:30:01;;;;;;;7.38;1.70;;;11.10;99.90;;;;;;5080418;28;20271;-78
2024/02/11 07:32:28;;;;;;;3.15;1.50;;;11.10;99.90;;;;;;5057074;28;20242;-78
2024/02/11 07:34:56;;;;;;;4.65;2.13;;;11.10;99.90;;;;;;5052833;28;20203;-77
2024/02/11 07:37:25;;;;;;;3.97;1.30;;;11.10;99.90;;;;;;5052727;28;20726;-77
2024/02/11 07:39:50;;;;;;;6.60;1.40;;;11.20;99.90;;;;;;5052473;28;20172;-77
2024/02/11 07:42:16;;;;;;;3.70;1.33;;;11.20;99.90;;;;;;5085860;28;20176;-78
2024/02/11 07:44:42;;;;;;;5.07;1.57;;;11.20;99.90;;;;;;5064023;28;20731;-78
2024/02/11 07:47:09;;;;;;;3.70;1.40;;;11.20;99.90;;;;;;5067269;28;20233;-77
2024/02/11 07:49:36;;;;;;;3.45;1.90;;;11.30;99.90;;;;;;5071093;28;20259;-76
2024/02/11 07:52:02;;;;;;;3.88;2.17;;;11.30;99.90;;;;;;5060265;28;20176;-76
2024/02/11 07:54:28;;;;;;;5.70;1.73;;;11.30;99.90;;;;;;5072099;28;20214;-77
2024/02/11 07:56:54;;;;;;;3.43;1.30;;;11.30;99.90;;;;;;5052121;28;20184;-77
2024/02/11 07:59:21;;;;;;;5.50;1.30;;;11.30;99.90;;;;;;5068843;28;20188;-77
2024/02/11 08:01:47;;;;;;;3.67;1.50;;;11.30;99.90;;;;;;5018284;28;20586;-76
2024/02/11 08:04:16;;;;;;;2.70;1.50;;;11.40;99.90;;;;;;5060439;28;20255;-76
2024/02/11 08:06:43;;;;;;;5.97;1.70;;;11.40;99.90;;;;;;5051831;28;20180;-75
2024/02/11 08:09:09;;;;;;;3.85;1.70;;;11.40;99.90;;;;;;5069622;28;20226;-77
2024/02/11 08:11:40;;;;;;;5.78;1.52;;;11.40;99.90;;;;;;5052009;28;20233;-76
2024/02/11 08:14:07;;;;;;;4.28;1.70;;;11.30;99.90;;;;;;5051803;28;20193;-76
2024/02/11 08:16:33;;;;;;;3.50;1.42;;;11.30;99.90;;;;;;5072506;28;20291;-76
2024/02/11 08:18:59;;;;;;;4.63;2.20;;;11.40;99.90;;;;;;5038981;28;20282;-76
2024/02/11 08:21:26;;;;;;;3.08;1.85;;;11.40;99.90;;;;;;5055553;28;20604;-76
2024/02/11 08:23:51;;;;;;;2.92;1.80;;;11.40;99.90;;;;;;5056009;28;20176;-76
2024/02/11 08:26:17;;;;;;;3.63;1.73;;;11.40;99.90;;;;;;5059113;28;20207;-77
2024/02/11 08:28:44;;;;;;;7.30;2.47;;;11.30;99.90;;;;;;5082804;28;20671;-76
2024/02/11 08:31:11;;;;;;;7.22;3.50;;;11.30;99.90;;;;;;5073140;28;20184;-77
2024/02/11 08:33:42;;;;;;;4.78;2.38;;;11.20;99.90;;;;;;5073672;28;20351;-77
2024/02/11 08:36:09;;;;;;;4.82;1.85;;;11.20;99.90;;;;;;5073734;28;20232;-77
2024/02/11 08:38:34;;;;;;;3.67;2.08;;;11.10;99.90;;;;;;5075771;28;20283;-77
2024/02/11 08:41:00;;;;;;;3.63;1.90;;;11.10;99.90;;;;;;5081040;28;20346;-75
2024/02/11 08:43:26;;;;;;;6.03;2.50;;;11.00;99.90;;;;;;5055038;28;20176;-76
2024/02/11 08:45:52;;;;;;;9.07;1.80;;;10.90;99.90;;;;;;5073268;28;20630;-76
2024/02/11 08:48:19;;;;;;;4.25;1.80;;;10.90;99.90;;;;;;5054911;28;20196;-76
2024/02/11 08:50:47;;;;;;;3.42;1.50;;;11.00;99.90;;;;;;5055027;28;20179;-77
2024/02/11 08:53:15;;;;;;;4.25;1.80;;;11.00;99.90;;;;;;5055208;28;20172;-76
2024/02/11 08:55:41;;;;;;;3.05;1.60;;;11.00;99.90;;;;;;5038426;28;20172;-76
2024/02/11 08:58:06;;;;;;;3.57;1.97;;;11.00;99.90;;;;;;5076578;28;20253;-76
2024/02/11 09:00:32;;;;;;;3.90;2.13;;;11.00;99.90;;;;;;5066130;28;20237;-76
2024/02/11 09:03:01;;;;;;;5.57;1.93;;;11.00;99.90;;;;;;5056656;28;20226;-76
2024/02/11 09:05:27;;;;;;;4.07;1.90;;;10.90;99.90;;;;;;5055134;28;20184;-76
2024/02/11 09:07:52;;;;;;;7.13;2.10;;;10.90;99.90;;;;;;5072567;28;20314;-75
2024/02/11 09:10:19;;;;;;;4.00;2.07;;;10.90;99.90;;;;;;5037665;28;20259;-75
2024/02/11 09:12:44;;;;;;;4.22;2.30;;;11.00;99.90;;;;;;5056434;28;20550;-75
2024/02/11 09:15:10;;;;;;;4.07;2.60;;;11.00;99.90;;;;;;5049977;28;20199;-75
2024/02/11 09:17:42;;;;;;;3.47;2.20;;;11.00;99.90;;;;;;5057293;28;20290;-75
2024/02/11 09:20:08;;;;;;;6.53;3.35;;;11.10;99.90;;;;;;5054231;28;20690;-75
2024/02/11 09:22:34;;;;;;;3.90;2.60;;;11.10;99.90;;;;;;5072609;28;20188;-75
2024/02/11 09:25:00;;;;;;;3.30;2.63;;;11.20;99.90;;;;;;5084493;28;20171;-77
2024/02/11 09:27:26;;;;;;;3.85;2.70;;;11.20;99.90;;;;;;5058535;28;20583;-76
2024/02/11 09:29:52;;;;;;;5.73;2.87;;;11.20;99.90;;;;;;5072045;28;20229;-77
2024/02/11 09:32:18;;;;;;;4.40;2.70;;;11.20;99.90;;;;;;5072519;28;20254;-75
2024/02/11 09:34:44;;;;;;;7.15;3.17;;;11.30;99.90;;;;;;5054384;28;20257;-75
2024/02/11 09:37:10;;;;;;;6.80;3.10;;;11.30;99.90;;;;;;5081702;22;20614;-74
2024/02/11 09:39:36;;;;;;;3.78;3.05;;;11.30;99.90;;;;;;5078937;28;21186;-74
2024/02/11 09:42:02;;;;;;;4.97;2.60;;;11.40;99.90;;;;;;5100641;28;20175;-74
2024/02/11 09:44:30;;;;;;;4.10;2.77;;;11.50;99.90;;;;;;5074151;28;20762;-74
2024/02/11 09:46:59;;;;;;;7.05;3.22;;;11.50;99.90;;;;;;5091913;28;20719;-74
2024/02/11 09:49:26;;;;;;;5.47;3.53;;;11.60;99.90;;;;;;5086466;28;20263;-74
2024/02/11 09:51:54;;;;;;;5.50;3.30;;;11.70;99.90;;;;;;5081974;28;20214;-74
2024/02/11 09:54:21;;;;;;;3.88;2.20;;;11.70;99.90;;;;;;5100470;28;20207;-75
2024/02/11 09:56:47;;;;;;;4.60;3.20;;;11.70;99.90;;;;;;5081983;28;20195;-75
2024/02/11 09:59:17;;;;;;;3.88;2.83;;;11.80;99.90;;;;;;5068071;28;20178;-75
2024/02/11 10:01:43;;;;;;;3.78;2.35;;;11.80;99.90;;;;;;5070703;28;20263;-75
2024/02/11 10:04:11;;;;;;;6.40;3.78;;;11.90;99.90;;;;;;5073851;28;20203;-75
2024/02/11 10:06:42;;;;;;;5.03;3.15;;;12.00;99.90;;;;;;5082037;28;20695;-75
2024/02/11 10:09:12;;;;;;;4.47;3.30;;;12.00;99.90;;;;;;5072431;28;20180;-75
2024/02/11 10:11:41;;;;;;;4.40;4.00;;;12.20;99.90;;;;;;5107843;28;20684;-75
2024/02/11 10:14:13;;;;;;;5.20;3.60;;;12.20;99.90;;;;;;5091534;28;20667;-75
2024/02/11 10:16:42;;;;;;;3.97;2.65;;;12.20;99.90;;;;;;5108409;28;20252;-75
2024/02/11 10:19:09;;;;;;;6.20;3.20;;;12.30;99.90;;;;;;5073340;28;20808;-75
2024/02/11 10:21:35;;;;;;;4.80;3.00;;;12.40;99.90;;;;;;5072949;28;20594;-75
2024/02/11 10:24:02;;;;;;;7.30;3.57;;;12.40;99.90;;;;;;5100003;28;20589;-76
2024/02/11 10:26:35;;;;;;;5.43;4.50;;;12.50;99.90;;;;;;5063504;28;20735;-75
2024/02/11 10:29:04;;;;;;;5.73;3.10;;;12.60;99.90;;;;;;5081660;28;20593;-76
2024/02/11 10:31:30;;;;;;;5.40;3.17;;;12.60;99.90;;;;;;5099664;28;20593;-76
2024/02/11 10:34:00;;;;;;;7.03;4.10;;;12.70;99.90;;;;;;5075798;28;20640;-72
2024/02/11 10:36:27;;;;;;;4.40;3.53;;;12.70;99.90;;;;;;5111405;28;20319;-72
2024/02/11 10:38:54;;;;;;;4.93;3.30;;;12.70;99.90;;;;;;5072518;28;20621;-72
2024/02/11 10:41:23;;;;;;;7.90;4.27;;;12.70;99.90;;;;;;5072458;28;20604;-72
2024/02/11 10:43:52;;;;;;;6.63;3.43;;;12.70;99.90;;;;;;5090947;28;20685;-72
2024/02/11 10:46:19;;;;;;;7.37;4.67;;;12.80;99.90;;;;;;5096379;28;20728;-72
2024/02/11 10:48:44;;;;;;;3.70;3.30;;;12.90;99.90;;;;;;5093423;28;20574;-73
2024/02/11 10:51:24;;;;;;;4.60;3.80;;;13.10;99.90;;;;;;5072326;28;20597;-73
2024/02/11 10:54:04;;;;;;;7.23;3.90;;;13.10;99.90;;;;;;5072646;28;20195;-72
2024/02/11 10:56:33;;;;;;;3.50;3.07;;;13.20;99.90;;;;;;5072572;28;20633;-72
2024/02/11 10:58:59;;;;;;;4.47;3.67;;;13.20;99.90;;;;;;5072381;28;20946;-72
2024/02/11 11:01:27;;;;;;;3.63;3.20;;;13.30;99.90;;;;;;5090469;28;20665;-72
2024/02/11 11:03:54;;;;;;;5.40;3.37;;;13.40;99.90;;;;;;5072412;28;20226;-72
2024/02/11 11:06:21;;;;;;;4.53;3.60;;;13.40;99.90;;;;;;5072261;28;20624;-72
2024/02/11 11:08:48;;;;;;;4.07;2.47;;;13.40;99.90;;;;;;5072977;28;20605;-72
2024/02/11 11:11:26;;;;;;;3.87;2.80;;;13.50;99.90;;;;;;5079459;28;20946;-72
2024/02/11 11:13:57;;;;;;;4.03;2.70;;;13.60;99.90;;;;;;5090424;28;20632;-72
2024/02/11 11:16:41;;;;;;;4.50;2.87;;;13.70;99.90;;;;;;5090280;28;20721;-72
2024/02/11 11:19:10;;;;;;;4.40;3.30;;;13.80;99.90;;;;;;5071900;28;20596;-71
2024/02/11 11:21:37;;;;;;;4.93;3.17;;;13.90;99.90;;;;;;5087783;28;20588;-72
2024/02/11 11:24:02;;;;;;;3.70;3.10;;;14.10;99.90;;;;;;5081079;28;21165;-72
2024/02/11 11:26:28;;;;;;;3.97;3.57;;;14.20;99.90;;;;;;5072111;28;20656;-72
2024/02/11 11:29:04;;;;;;;4.37;3.37;;;14.20;99.90;;;;;;5072023;28;20596;-73
2024/02/11 11:31:31;;;;;;;4.87;2.97;;;14.40;99.90;;;;;;5055602;28;20185;-75
2024/02/11 11:33:57;;;;;;;4.33;2.90;;;14.50;99.90;;;;;;5056211;28;20810;-75
2024/02/11 11:36:24;;;;;;;2.93;2.37;;;14.50;99.90;;;;;;5090401;28;20637;-74
2024/02/11 11:38:51;;;;;;;2.83;2.40;;;14.60;99.90;;;;;;5090544;28;20577;-75
2024/02/11 11:41:17;;;;;;;5.77;2.70;;;14.70;99.90;;;;;;5085434;28;20633;-74
2024/02/11 11:43:44;;;;;;;4.10;3.03;;;14.70;99.90;;;;;;5102624;28;20593;-74
2024/02/11 11:46:09;;;;;;;3.03;2.37;;;14.80;99.90;;;;;;5090567;28;21118;-74
2024/02/11 11:48:35;;;;;;;3.27;2.17;;;15.00;99.90;;;;;;5063746;28;20583;-74
2024/02/11 11:51:03;;;;;;;2.57;1.80;;;15.20;99.90;;;;;;5077620;28;20175;-75
2024/02/11 11:53:29;;;;;;;2.90;2.07;;;15.30;99.90;;;;;;5076242;28;20214;-74
2024/02/11 11:55:56;;;;;;;3.63;1.33;;;15.50;99.90;;;;;;5084992;28;20942;-74
2024/02/11 11:58:24;;;;;;;2.57;1.43;;;15.60;99.90;;;;;;5076407;28;20642;-75
2024/02/11 12:01:04;;;;;;;5.33;1.70;;;15.70;99.90;;;;;;5084465;28;20684;-74
2024/02/11 12:03:31;;;;;;;3.70;2.00;;;15.70;99.90;;;;;;5084835;28;20653;-75
2024/02/11 12:05:57;;;;;;;6.17;1.63;;;15.80;99.90;;;;;;5086190;28;20604;-75
2024/02/11 12:08:27;;;;;;;2.37;1.53;;;15.80;99.90;;;;;;5109553;28;21324;-75
2024/02/11 12:11:01;;;;;;;2.77;1.40;;;15.80;99.90;;;;;;5102715;28;20892;-75
2024/02/11 12:13:31;;;;;;;2.87;1.30;;;15.80;99.90;;;;;;5075948;28;21132;-75
2024/02/11 12:15:57;;;;;;;2.70;1.30;;;15.80;99.90;;;;;;5084267;28;20581;-75
2024/02/11 12:18:23;;;;;;;2.30;1.50;;;15.90;99.90;;;;;;5075846;28;20594;-75
2024/02/11 12:20:49;;;;;;;3.80;1.10;;;15.80;99.90;;;;;;5076362;28;20634;-75
2024/02/11 12:23:16;;;;;;;1.93;0.90;;;15.80;99.90;;;;;;5067099;28;20586;-75
2024/02/11 12:25:42;;;;;;;2.90;0.90;;;15.80;99.90;;;;;;5102352;28;20193;-75
2024/02/11 12:28:09;;;;;;;2.37;1.00;;;15.80;99.90;;;;;;5102586;28;20712;-74
2024/02/11 12:30:38;;;;;;;1.97;1.00;;;15.70;99.90;;;;;;5082419;28;20592;-75
2024/02/11 12:33:06;;;;;;;3.80;1.10;;;15.60;99.90;;;;;;5085264;28;20586;-75
2024/02/11 12:35:36;;;;;;;1.70;0.83;;;15.60;99.90;;;;;;5075057;28;20731;-75
2024/02/11 12:38:02;;;;;;;2.77;1.00;;;15.60;99.90;;;;;;5083750;28;20643;-75
2024/02/11 12:40:29;;;;;;;2.13;0.90;;;15.50;99.90;;;;;;5081533;28;21140;-75
2024/02/11 12:43:01;;;;;;;6.20;1.57;;;15.50;99.90;;;;;;5104491;28;21007;-75
2024/02/11 12:45:28;;;;;;;2.07;1.10;;;15.40;99.90;;;;;;5075440;28;20594;-75
2024/02/11 12:47:55;;;;;;;2.40;1.20;;;15.40;99.90;;;;;;5083623;28;20643;-75
2024/02/11 12:50:24;;;;;;;2.60;0.80;;;15.40;99.90;;;;;;5101888;28;20593;-74
2024/02/11 12:52:51;;;;;;;1.77;0.90;;;15.30;99.90;;;;;;5083733;28;20597;-75